createdAt,value
2018-03-07T00:02:25.749Z,2.60
2018-03-07T00:04:53.333Z,2.60
2018-03-07T00:07:20.942Z,2.60
2018-03-07T00:09:49.307Z,2.60
2018-03-07T00:12:17.704Z,2.60
2018-03-07T00:14:46.999Z,2.50
2018-03-07T00:17:14.590Z,2.50
2018-03-07T00:19:42.190Z,2.50
2018-03-07T00:22:09.774Z,2.50
2018-03-07T00:24:37.343Z,2.50
2018-03-07T00:27:04.896Z,2.50
2018-03-07T00:29:32.538Z,2.40
2018-03-07T00:32:00.112Z,2.40
2018-03-07T00:34:27.842Z,2.40
2018-03-07T00:36:55.413Z,2.30
2018-03-07T00:39:23.024Z,2.30
2018-03-07T00:41:50.585Z,2.30
2018-03-07T00:44:18.189Z,2.30
2018-03-07T00:46:47.145Z,2.30
2018-03-07T00:49:14.713Z,2.30
2018-03-07T00:51:42.274Z,2.30
2018-03-07T00:54:09.848Z,2.30
2018-03-07T00:56:37.427Z,2.30
2018-03-07T00:59:04.998Z,2.30
2018-03-07T01:01:32.603Z,2.20
2018-03-07T01:04:00.178Z,2.20
2018-03-07T01:06:27.778Z,2.20
2018-03-07T01:08:55.336Z,2.10
2018-03-07T01:11:22.936Z,2.10
2018-03-07T01:13:51.272Z,2.10
2018-03-07T01:16:18.846Z,2.00
2018-03-07T01:18:46.436Z,2.10
2018-03-07T01:21:14.018Z,2.00
2018-03-07T01:23:42.367Z,2.00
2018-03-07T01:26:09.923Z,2.00
2018-03-07T01:28:37.514Z,2.00
2018-03-07T01:31:05.112Z,2.00
2018-03-07T01:33:32.678Z,2.00
2018-03-07T01:36:00.255Z,2.00
2018-03-07T01:38:28.714Z,2.00
2018-03-07T01:40:57.103Z,2.00
2018-03-07T01:43:24.671Z,1.90
2018-03-07T01:45:52.247Z,2.00
2018-03-07T01:48:19.813Z,1.90
2018-03-07T01:50:47.402Z,1.80
2018-03-07T01:53:14.998Z,1.80
2018-03-07T01:55:42.557Z,1.80
2018-03-07T01:58:10.171Z,1.80
2018-03-07T02:00:37.739Z,1.70
2018-03-07T02:03:05.330Z,1.70
2018-03-07T02:05:32.918Z,1.70
2018-03-07T02:08:00.513Z,1.70
2018-03-07T02:10:28.871Z,1.80
2018-03-07T02:12:56.425Z,1.70
2018-03-07T02:15:23.991Z,1.70
2018-03-07T02:17:51.561Z,1.70
2018-03-07T02:20:19.737Z,1.70
2018-03-07T02:22:47.313Z,1.70
2018-03-07T02:25:14.900Z,1.70
2018-03-07T02:27:42.490Z,1.80
2018-03-07T02:30:10.055Z,1.80
2018-03-07T02:32:37.627Z,1.90
2018-03-07T02:35:05.189Z,1.90
2018-03-07T02:37:32.780Z,1.90
2018-03-07T02:40:00.363Z,1.90
2018-03-07T02:42:27.959Z,1.90
2018-03-07T02:44:55.539Z,1.90
2018-03-07T02:47:23.105Z,2.00
2018-03-07T02:49:51.453Z,2.00
2018-03-07T02:52:19.031Z,2.00
2018-03-07T02:54:47.371Z,2.10
2018-03-07T02:57:15.871Z,2.00
2018-03-07T02:59:44.221Z,2.00
2018-03-07T03:02:11.822Z,2.00
2018-03-07T03:04:39.402Z,2.00
2018-03-07T03:07:07.743Z,2.00
2018-03-07T03:09:35.355Z,2.00
2018-03-07T03:12:03.501Z,2.10
2018-03-07T03:14:31.096Z,2.00
2018-03-07T03:16:59.459Z,2.10
2018-03-07T03:19:27.019Z,2.10
2018-03-07T03:21:54.590Z,2.10
2018-03-07T03:24:22.202Z,2.20
2018-03-07T03:26:49.768Z,2.20
2018-03-07T03:29:17.342Z,2.30
2018-03-07T03:31:44.896Z,2.30
2018-03-07T03:34:12.501Z,2.40
2018-03-07T03:36:40.092Z,2.40
2018-03-07T03:39:08.451Z,2.50
2018-03-07T03:41:36.041Z,2.50
2018-03-07T03:44:05.102Z,2.50
2018-03-07T03:46:32.681Z,2.50
2018-03-07T03:49:00.272Z,2.50
2018-03-07T03:51:28.619Z,2.50
2018-03-07T03:53:56.217Z,2.60
2018-03-07T03:56:24.554Z,2.60
2018-03-07T03:58:52.123Z,2.60
2018-03-07T04:01:19.698Z,2.60
2018-03-07T04:03:47.264Z,2.70
2018-03-07T04:06:14.891Z,2.70
2018-03-07T04:08:42.473Z,2.70
2018-03-07T04:11:10.058Z,2.70
2018-03-07T04:13:38.343Z,2.60
2018-03-07T04:16:06.242Z,2.60
2018-03-07T04:18:34.576Z,2.60
2018-03-07T04:21:02.996Z,2.60
2018-03-07T04:23:30.584Z,2.70
2018-03-07T04:25:58.945Z,2.70
2018-03-07T04:28:27.296Z,2.70
2018-03-07T04:30:54.867Z,2.70
2018-03-07T04:33:22.433Z,2.80
2018-03-07T04:35:50.017Z,2.80
2018-03-07T04:38:17.617Z,2.80
2018-03-07T04:40:45.190Z,2.90
2018-03-07T04:43:12.777Z,2.90
2018-03-07T04:45:40.369Z,2.90
2018-03-07T04:48:07.947Z,3.00
2018-03-07T04:50:36.294Z,3.10
2018-03-07T04:53:03.875Z,3.10
2018-03-07T04:55:31.440Z,3.10
2018-03-07T04:57:59.014Z,3.20
2018-03-07T05:00:27.386Z,3.30
2018-03-07T05:02:54.978Z,3.30
2018-03-07T05:05:23.347Z,3.40
2018-03-07T05:07:50.922Z,3.40
2018-03-07T05:10:18.596Z,3.50
2018-03-07T05:12:47.298Z,3.70
2018-03-07T05:15:14.892Z,3.70
2018-03-07T05:17:42.461Z,3.80
2018-03-07T05:20:10.041Z,3.80
2018-03-07T05:22:37.941Z,3.90
2018-03-07T05:25:05.536Z,3.90
2018-03-07T05:27:33.113Z,3.80
2018-03-07T05:30:00.700Z,3.80
2018-03-07T05:32:28.273Z,3.80
2018-03-07T05:34:55.840Z,3.80
2018-03-07T05:37:23.393Z,3.80
2018-03-07T05:39:50.972Z,3.70
2018-03-07T05:42:18.540Z,3.70
2018-03-07T05:44:46.136Z,3.70
2018-03-07T05:47:14.475Z,3.70
2018-03-07T05:49:42.045Z,3.70
2018-03-07T05:52:09.630Z,3.70
2018-03-07T05:54:37.219Z,3.60
2018-03-07T05:57:04.789Z,3.60
2018-03-07T05:59:33.131Z,3.60
2018-03-07T06:02:00.752Z,3.60
2018-03-07T06:04:28.337Z,3.70
2018-03-07T06:06:55.971Z,3.70
2018-03-07T06:09:23.497Z,3.80
2018-03-07T06:11:51.101Z,3.80
2018-03-07T06:14:18.781Z,3.80
2018-03-07T06:16:46.360Z,3.90
2018-03-07T06:19:13.934Z,3.90
2018-03-07T06:21:41.510Z,4.00
2018-03-07T06:24:09.498Z,4.10
2018-03-07T06:26:37.080Z,4.10
2018-03-07T06:29:04.659Z,4.10
2018-03-07T06:31:33.003Z,4.10
2018-03-07T06:34:00.587Z,4.10
2018-03-07T06:36:29.048Z,4.10
2018-03-07T06:38:56.649Z,4.20
2018-03-07T06:41:24.979Z,4.30
2018-03-07T06:43:52.555Z,4.30
2018-03-07T06:46:20.150Z,4.40
2018-03-07T06:48:47.718Z,4.50
2018-03-07T06:51:15.307Z,4.50
2018-03-07T06:53:42.927Z,4.60
2018-03-07T06:56:10.585Z,4.60
2018-03-07T06:58:38.194Z,4.70
2018-03-07T07:01:05.801Z,4.80
2018-03-07T07:03:33.378Z,4.80
2018-03-07T07:06:00.944Z,4.90
2018-03-07T07:08:28.524Z,5.00
2018-03-07T07:10:56.083Z,5.00
2018-03-07T07:13:23.655Z,5.00
2018-03-07T07:15:51.228Z,5.10
2018-03-07T07:18:18.811Z,5.10
2018-03-07T07:20:48.180Z,5.20
2018-03-07T07:23:15.748Z,5.20
2018-03-07T07:25:43.345Z,5.30
2018-03-07T07:28:10.919Z,5.40
2018-03-07T07:30:39.243Z,5.50
2018-03-07T07:33:06.807Z,5.50
2018-03-07T07:35:34.852Z,5.70
2018-03-07T07:38:02.453Z,5.80
2018-03-07T07:40:30.028Z,5.90
2018-03-07T07:42:57.635Z,6.00
2018-03-07T07:45:25.991Z,6.20
2018-03-07T07:47:53.578Z,6.20
2018-03-07T07:50:21.986Z,6.30
2018-03-07T07:52:50.008Z,6.30
2018-03-07T07:55:17.658Z,6.40
2018-03-07T07:57:45.232Z,6.40
2018-03-07T08:00:12.841Z,6.40
2018-03-07T08:02:41.301Z,6.40
2018-03-07T08:05:08.904Z,6.40
2018-03-07T08:07:36.482Z,6.30
2018-03-07T08:10:04.099Z,6.30
2018-03-07T08:12:31.709Z,6.20
2018-03-07T08:14:59.309Z,6.20
2018-03-07T08:17:26.897Z,6.10
2018-03-07T08:19:54.536Z,6.10
2018-03-07T08:22:23.099Z,6.10
2018-03-07T08:24:51.606Z,6.10
2018-03-07T08:27:19.308Z,6.10
2018-03-07T08:29:46.916Z,6.20
2018-03-07T08:32:14.520Z,6.20
2018-03-07T08:34:42.096Z,6.30
2018-03-07T08:37:09.707Z,6.40
2018-03-07T08:39:37.792Z,6.40
2018-03-07T08:42:05.380Z,6.50
2018-03-07T08:44:33.016Z,6.50
2018-03-07T08:47:00.602Z,6.50
2018-03-07T08:49:28.209Z,6.50
2018-03-07T08:51:56.567Z,6.70
2018-03-07T08:54:24.137Z,6.70
2018-03-07T08:56:51.749Z,6.70
2018-03-07T08:59:19.327Z,6.80
2018-03-07T09:01:46.927Z,7.00
2018-03-07T09:04:14.504Z,7.10
2018-03-07T09:06:42.126Z,7.20
2018-03-07T09:09:09.756Z,7.30
2018-03-07T09:11:38.114Z,7.40
2018-03-07T09:14:05.705Z,7.40
2018-03-07T09:16:33.295Z,7.60
2018-03-07T09:19:00.884Z,7.70
2018-03-07T09:21:28.510Z,7.80
2018-03-07T09:23:56.886Z,7.90
2018-03-07T09:26:25.218Z,8.00
2018-03-07T09:28:52.816Z,7.90
2018-03-07T09:31:20.405Z,8.00
2018-03-07T09:33:49.466Z,8.20
2018-03-07T09:36:17.091Z,8.20
2018-03-07T09:38:44.674Z,8.30
2018-03-07T09:41:12.258Z,8.30
2018-03-07T09:43:39.853Z,8.40
2018-03-07T09:46:08.211Z,8.60
2018-03-07T09:48:35.805Z,8.60
2018-03-07T09:51:03.406Z,8.80
2018-03-07T09:53:31.017Z,8.90
2018-03-07T09:55:58.619Z,9.00
2018-03-07T09:58:26.282Z,9.20
2018-03-07T10:00:53.852Z,9.30
2018-03-07T10:03:21.464Z,9.30
2018-03-07T10:05:49.044Z,9.40
2018-03-07T10:08:16.645Z,9.50
2018-03-07T10:10:44.799Z,9.50
2018-03-07T10:13:12.381Z,9.60
2018-03-07T10:15:40.719Z,9.50
2018-03-07T10:18:08.314Z,9.50
2018-03-07T10:20:37.421Z,9.60
2018-03-07T10:23:05.811Z,9.70
2018-03-07T10:25:33.412Z,9.70
2018-03-07T10:28:01.010Z,9.90
2018-03-07T10:30:28.623Z,10.00
2018-03-07T10:32:56.219Z,10.20
2018-03-07T10:35:23.832Z,10.30
2018-03-07T10:37:53.092Z,10.50
2018-03-07T10:40:20.694Z,10.50
2018-03-07T10:42:48.487Z,10.70
2018-03-07T10:45:16.092Z,10.80
2018-03-07T10:47:43.728Z,11.00
2018-03-07T10:50:11.302Z,11.10
2018-03-07T10:52:38.866Z,11.20
2018-03-07T10:55:06.448Z,11.30
2018-03-07T10:57:34.083Z,11.40
2018-03-07T11:00:01.701Z,11.50
2018-03-07T11:02:29.363Z,11.60
2018-03-07T11:04:56.934Z,11.80
2018-03-07T11:07:24.687Z,11.80
2018-03-07T11:09:52.297Z,11.90
2018-03-07T11:12:20.663Z,12.20
2018-03-07T11:14:49.096Z,12.10
2018-03-07T11:17:16.670Z,12.30
2018-03-07T11:19:44.232Z,12.10
2018-03-07T11:22:11.801Z,11.80
2018-03-07T11:24:40.209Z,11.50
2018-03-07T11:27:08.770Z,11.30
2018-03-07T11:29:37.254Z,11.10
2018-03-07T11:32:04.872Z,10.90
2018-03-07T11:34:33.228Z,10.80
2018-03-07T11:37:00.859Z,10.80
2018-03-07T11:39:28.469Z,10.80
2018-03-07T11:41:56.039Z,10.80
2018-03-07T11:44:23.619Z,10.80
2018-03-07T11:46:51.967Z,11.00
2018-03-07T11:49:19.569Z,11.00
2018-03-07T11:51:47.161Z,11.00
2018-03-07T11:54:15.528Z,11.20
2018-03-07T11:56:43.107Z,11.20
2018-03-07T11:59:10.766Z,11.30
2018-03-07T12:01:38.336Z,11.30
2018-03-07T12:04:06.265Z,11.30
2018-03-07T12:06:33.826Z,11.40
2018-03-07T12:09:01.397Z,11.50
2018-03-07T12:11:28.992Z,11.50
2018-03-07T12:13:56.592Z,11.50
2018-03-07T12:16:24.202Z,11.50
2018-03-07T12:18:51.780Z,11.40
2018-03-07T12:21:20.114Z,11.20
2018-03-07T12:23:47.674Z,11.20
2018-03-07T12:26:15.239Z,11.10
2018-03-07T12:28:42.829Z,11.10
2018-03-07T12:31:10.413Z,11.10
2018-03-07T12:33:37.978Z,11.10
2018-03-07T12:36:06.397Z,11.10
2018-03-07T12:38:33.989Z,11.10
2018-03-07T12:41:01.571Z,11.10
2018-03-07T12:43:29.176Z,11.00
2018-03-07T12:45:56.753Z,11.10
2018-03-07T12:48:24.368Z,11.00
2018-03-07T12:50:51.960Z,11.00
2018-03-07T12:53:20.317Z,11.00
2018-03-07T12:55:47.886Z,11.00
2018-03-07T12:58:15.460Z,11.00
2018-03-07T13:00:43.800Z,11.00
2018-03-07T13:03:11.373Z,11.00
2018-03-07T13:05:38.946Z,10.90
2018-03-07T13:08:06.513Z,11.00
2018-03-07T13:10:34.118Z,10.90
2018-03-07T13:13:01.720Z,10.80
2018-03-07T13:15:29.295Z,10.70
2018-03-07T13:17:56.873Z,10.50
2018-03-07T13:20:24.467Z,10.50
2018-03-07T13:22:52.803Z,10.30
2018-03-07T13:25:20.375Z,10.20
2018-03-07T13:27:47.982Z,10.20
2018-03-07T13:30:16.374Z,10.10
2018-03-07T13:32:44.711Z,10.10
2018-03-07T13:35:12.305Z,10.10
2018-03-07T13:37:40.644Z,10.10
2018-03-07T13:40:08.225Z,10.10
2018-03-07T13:42:35.809Z,10.10
2018-03-07T13:45:03.420Z,10.10
2018-03-07T13:47:31.008Z,10.10
2018-03-07T13:49:58.567Z,10.10
2018-03-07T13:52:26.128Z,10.00
2018-03-07T13:54:53.746Z,10.10
2018-03-07T13:57:22.085Z,10.10
2018-03-07T13:59:49.672Z,10.10
2018-03-07T14:02:18.916Z,10.10
2018-03-07T14:04:46.544Z,10.20
2018-03-07T14:07:15.909Z,10.30
2018-03-07T14:09:44.457Z,10.20
2018-03-07T14:12:12.823Z,10.10
2018-03-07T14:14:41.190Z,10.10
2018-03-07T14:17:08.854Z,10.10
2018-03-07T14:19:37.054Z,10.10
2018-03-07T14:22:05.424Z,10.20
2018-03-07T14:24:33.024Z,10.20
2018-03-07T14:27:00.632Z,10.20
2018-03-07T14:29:28.235Z,10.20
2018-03-07T14:31:56.594Z,10.10
2018-03-07T14:34:24.215Z,10.10
2018-03-07T14:36:51.804Z,10.00
2018-03-07T14:39:19.386Z,10.00
2018-03-07T14:41:47.000Z,9.90
2018-03-07T14:44:14.570Z,9.90
2018-03-07T14:46:42.235Z,9.80
2018-03-07T14:49:09.820Z,9.80
2018-03-07T14:51:37.422Z,9.80
2018-03-07T14:54:05.007Z,9.80
2018-03-07T14:56:32.781Z,9.90
2018-03-07T14:59:00.476Z,9.90
2018-03-07T15:01:28.084Z,9.90
2018-03-07T15:03:55.674Z,9.90
2018-03-07T15:06:23.272Z,9.80
2018-03-07T15:08:51.626Z,9.70
2018-03-07T15:11:19.966Z,9.60
2018-03-07T15:13:47.586Z,9.60
2018-03-07T15:16:15.159Z,9.60
2018-03-07T15:18:42.753Z,9.50
2018-03-07T15:21:10.403Z,9.50
2018-03-07T15:23:38.070Z,9.50
2018-03-07T15:26:05.665Z,9.50
2018-03-07T15:28:33.284Z,9.50
2018-03-07T15:31:00.899Z,9.40
2018-03-07T15:33:28.495Z,9.40
2018-03-07T15:35:56.081Z,9.30
2018-03-07T15:38:23.671Z,9.30
2018-03-07T15:40:51.308Z,9.20
2018-03-07T15:43:18.907Z,9.20
2018-03-07T15:45:46.474Z,9.20
2018-03-07T15:48:14.072Z,9.20
2018-03-07T15:50:41.672Z,9.10
2018-03-07T15:53:09.279Z,9.10
2018-03-07T15:55:36.854Z,9.10
2018-03-07T15:58:05.048Z,9.10
2018-03-07T16:00:32.663Z,9.10
2018-03-07T16:03:00.245Z,9.10
2018-03-07T16:05:27.829Z,9.10
2018-03-07T16:07:55.431Z,9.10
2018-03-07T16:10:23.780Z,9.00
2018-03-07T16:12:51.374Z,9.00
2018-03-07T16:15:18.976Z,9.00
2018-03-07T16:17:46.589Z,8.90
2018-03-07T16:20:14.195Z,8.90
2018-03-07T16:22:41.811Z,8.90
2018-03-07T16:25:09.380Z,8.90
2018-03-07T16:27:36.981Z,8.90
2018-03-07T16:30:06.048Z,8.90
2018-03-07T16:32:33.643Z,8.90
2018-03-07T16:35:01.804Z,8.90
2018-03-07T16:37:29.424Z,8.80
2018-03-07T16:39:56.996Z,8.80
2018-03-07T16:42:24.638Z,8.80
2018-03-07T16:44:52.204Z,8.80
2018-03-07T16:47:19.801Z,8.80
2018-03-07T16:49:47.370Z,8.80
2018-03-07T16:52:14.939Z,8.80
2018-03-07T16:54:42.519Z,8.70
2018-03-07T16:57:10.084Z,8.70
2018-03-07T16:59:37.677Z,8.70
2018-03-07T17:02:05.275Z,8.70
2018-03-07T17:04:32.882Z,8.70
2018-03-07T17:07:00.632Z,8.60
2018-03-07T17:09:28.977Z,8.50
2018-03-07T17:11:56.541Z,8.40
2018-03-07T17:14:24.867Z,8.40
2018-03-07T17:16:52.433Z,8.40
2018-03-07T17:19:20.040Z,8.40
2018-03-07T17:21:47.646Z,8.30
2018-03-07T17:24:15.219Z,8.30
2018-03-07T17:26:42.790Z,8.30
2018-03-07T17:29:10.364Z,8.30
2018-03-07T17:31:37.955Z,8.30
2018-03-07T17:34:07.098Z,8.20
2018-03-07T17:36:34.775Z,8.20
2018-03-07T17:39:02.344Z,8.20
2018-03-07T17:41:29.982Z,8.20
2018-03-07T17:43:57.568Z,8.20
2018-03-07T17:46:25.175Z,8.10
2018-03-07T17:48:52.792Z,8.10
2018-03-07T17:51:20.395Z,8.10
2018-03-07T17:53:48.752Z,8.00
2018-03-07T17:56:16.339Z,8.00
2018-03-07T17:58:44.699Z,7.90
2018-03-07T18:01:12.308Z,7.90
2018-03-07T18:03:40.635Z,7.90
2018-03-07T18:06:08.203Z,7.80
2018-03-07T18:08:35.831Z,7.80
2018-03-07T18:11:03.393Z,7.70
2018-03-07T18:13:31.050Z,7.70
2018-03-07T18:15:59.399Z,7.70
2018-03-07T18:18:26.973Z,7.70
2018-03-07T18:20:54.537Z,7.70
2018-03-07T18:23:22.107Z,7.70
2018-03-07T18:25:49.708Z,7.60
2018-03-07T18:28:17.280Z,7.60
2018-03-07T18:30:45.585Z,7.60
2018-03-07T18:33:13.177Z,7.60
2018-03-07T18:35:40.765Z,7.60
2018-03-07T18:38:09.119Z,7.60
2018-03-07T18:40:36.794Z,7.60
2018-03-07T18:43:04.414Z,7.50
2018-03-07T18:45:32.034Z,7.50
2018-03-07T18:47:59.626Z,7.50
2018-03-07T18:50:27.240Z,7.50
2018-03-07T18:52:54.820Z,7.50
2018-03-07T18:55:22.408Z,7.50
2018-03-07T18:57:50.140Z,7.50
2018-03-07T19:00:17.741Z,7.50
2018-03-07T19:02:45.341Z,7.40
2018-03-07T19:05:13.800Z,7.40
2018-03-07T19:07:41.381Z,7.40
2018-03-07T19:10:08.965Z,7.40
2018-03-07T19:12:36.536Z,7.40
2018-03-07T19:15:06.015Z,7.40
2018-03-07T19:17:33.617Z,7.40
2018-03-07T19:20:01.188Z,7.40
2018-03-07T19:22:28.785Z,7.40
2018-03-07T19:24:57.138Z,7.40
2018-03-07T19:27:24.780Z,7.40
2018-03-07T19:29:52.372Z,7.40
2018-03-07T19:32:19.977Z,7.40
2018-03-07T19:34:48.358Z,7.40
2018-03-07T19:37:16.738Z,7.40
2018-03-07T19:39:45.110Z,7.40
2018-03-07T19:42:13.484Z,7.40
2018-03-07T19:44:41.073Z,7.30
2018-03-07T19:47:09.440Z,7.30
2018-03-07T19:49:37.039Z,7.30
2018-03-07T19:52:04.669Z,7.30
2018-03-07T19:54:33.011Z,7.30
2018-03-07T19:57:01.335Z,7.30
2018-03-07T19:59:28.973Z,7.30
2018-03-07T20:01:56.576Z,7.30
2018-03-07T20:04:24.930Z,7.20
2018-03-07T20:06:53.106Z,7.20
2018-03-07T20:09:21.314Z,7.10
2018-03-07T20:11:49.459Z,7.10
2018-03-07T20:14:17.047Z,6.90
2018-03-07T20:16:45.459Z,6.80
2018-03-07T20:19:13.656Z,6.80
2018-03-07T20:21:41.269Z,6.70
2018-03-07T20:24:08.873Z,6.60
2018-03-07T20:26:36.437Z,6.50
2018-03-07T20:29:04.057Z,6.50
2018-03-07T20:31:31.675Z,6.50
2018-03-07T20:33:59.373Z,6.50
2018-03-07T20:36:26.959Z,6.50
2018-03-07T20:38:54.554Z,6.40
2018-03-07T20:41:22.917Z,6.40
2018-03-07T20:43:50.533Z,6.40
2018-03-07T20:46:18.103Z,6.40
2018-03-07T20:48:45.714Z,6.30
2018-03-07T20:51:13.342Z,6.30
2018-03-07T20:53:40.947Z,6.30
2018-03-07T20:56:09.300Z,6.20
2018-03-07T20:58:36.877Z,6.20
2018-03-07T21:01:05.283Z,6.10
2018-03-07T21:03:33.652Z,6.10
2018-03-07T21:06:01.228Z,6.00
2018-03-07T21:08:29.576Z,6.00
2018-03-07T21:10:57.186Z,6.00
2018-03-07T21:13:25.534Z,6.00
2018-03-07T21:15:53.787Z,6.00
2018-03-07T21:18:21.389Z,5.90
2018-03-07T21:20:49.007Z,5.90
2018-03-07T21:23:16.624Z,5.90
2018-03-07T21:25:44.280Z,5.90
2018-03-07T21:28:11.859Z,5.90
2018-03-07T21:30:39.460Z,5.80
2018-03-07T21:33:07.098Z,5.80
2018-03-07T21:35:34.667Z,5.80
2018-03-07T21:38:02.274Z,5.80
2018-03-07T21:40:29.834Z,5.70
2018-03-07T21:42:58.183Z,5.60
2018-03-07T21:45:25.774Z,5.60
2018-03-07T21:47:53.341Z,5.60
2018-03-07T21:50:20.957Z,5.60
2018-03-07T21:52:49.324Z,5.50
2018-03-07T21:55:16.946Z,5.50
2018-03-07T21:57:44.536Z,5.50
2018-03-07T22:00:12.127Z,5.50
2018-03-07T22:02:40.507Z,5.50
2018-03-07T22:05:09.016Z,5.50
2018-03-07T22:07:37.377Z,5.40
2018-03-07T22:10:04.956Z,5.40
2018-03-07T22:12:32.539Z,5.50
2018-03-07T22:15:00.919Z,5.40
2018-03-07T22:17:29.957Z,5.40
2018-03-07T22:19:58.317Z,5.40
2018-03-07T22:22:25.892Z,5.40
2018-03-07T22:24:53.608Z,5.40
2018-03-07T22:27:21.220Z,5.40
2018-03-07T22:29:48.824Z,5.40
2018-03-07T22:32:16.419Z,5.40
2018-03-07T22:34:44.020Z,5.50
2018-03-07T22:37:11.598Z,5.50
2018-03-07T22:39:39.196Z,5.50
2018-03-07T22:42:06.808Z,5.50
2018-03-07T22:44:34.390Z,5.50
2018-03-07T22:47:01.983Z,5.50
2018-03-07T22:49:29.582Z,5.60
2018-03-07T22:51:57.160Z,5.60
2018-03-07T22:54:25.548Z,5.50
2018-03-07T22:56:53.864Z,5.60
2018-03-07T22:59:22.252Z,5.60
2018-03-07T23:01:49.834Z,5.60
2018-03-07T23:04:17.390Z,5.60
2018-03-07T23:06:44.956Z,5.60
2018-03-07T23:09:12.542Z,5.60
2018-03-07T23:11:40.124Z,5.60
2018-03-07T23:14:08.476Z,5.60
2018-03-07T23:16:36.077Z,5.60
2018-03-07T23:19:04.412Z,5.60
2018-03-07T23:21:32.493Z,5.60
2018-03-07T23:24:00.103Z,5.60
2018-03-07T23:26:28.925Z,5.60
2018-03-07T23:28:56.530Z,5.60
2018-03-07T23:31:24.895Z,5.70
2018-03-07T23:33:52.471Z,5.70
2018-03-07T23:36:20.032Z,5.70
2018-03-07T23:38:47.615Z,5.70
2018-03-07T23:41:15.214Z,5.70
2018-03-07T23:43:42.817Z,5.70
2018-03-07T23:46:10.381Z,5.70
2018-03-07T23:48:37.948Z,5.80
2018-03-07T23:51:05.516Z,5.80
2018-03-07T23:53:33.097Z,5.70
2018-03-07T23:56:00.662Z,5.70
2018-03-07T23:58:28.261Z,5.70
